Billmaier — AEHT — position and weather

sailwx.info

Track history (hours):
 
Tides and Currents Weather Stations Pressure Air Temp Water Temp Dewpoint Dewpoint Depression Visibility Wind Speed Wind Dir Waves Ship Positions

Billmaier

Last reported at 2018-May-21 08:56 UTC. Time now 2018-Jul-19 13:23 UTC.
Position N 44°59' W 086°01'.
Warning: this ship's position is 59 days out of date.

Type: Tug. MMSI: 366999402.

Date/timePositionNaut miles runAvg speedWind from/ knotsBaromVisibWave heightAir tempDewpointWater temp
2018-May-21 08:56N 44°59' W 086°01'5 8.4
2018-May-21 08:20N 45°01' W 085°55'4 8.3
2018-May-21 07:48N 45°04' W 085°50'3 8.3
2018-May-21 07:28N 45°06' W 085°48'4 8.3
2018-May-21 07:00N 45°10' W 085°44'4 8.3
2018-May-21 06:30N 45°13' W 085°41'4 8.4
2018-May-21 06:00N 45°16' W 085°37'4 8.3
2018-May-21 05:30N 45°20' W 085°34'4 8.3
2018-May-21 05:00N 45°23' W 085°31'4 8.4
2018-May-21 04:30N 45°26' W 085°27'4 8.4
2018-May-21 04:00N 45°30' W 085°24'4 8.3
2018-May-21 03:31N 45°33' W 085°20'4 8.4
2018-May-21 03:00N 45°37' W 085°17'4 8.4
2018-May-21 02:30N 45°40' W 085°13'4 8.3
2018-May-21 02:00N 45°44' W 085°10'4 8.4
2018-May-21 01:30N 45°48' W 085°09'3 7.0
2018-May-21 01:00N 45°50' W 085°05'4 8.2
2018-May-21 00:30N 45°50' W 084°59'4 8.4
2018-May-21 00:00N 45°49' W 084°53'4 8.5
2018-May-20 23:30N 45°49' W 084°47'4 8.3
2018-May-20 23:01N 45°49' W 084°41'4 8.4
2018-May-20 22:30N 45°51' W 084°35'5 8.2
2018-May-20 21:56N 45°52' W 084°29'  
2018-May-16 21:53N 46°50' W 091°35'3 8.2
2018-May-16 21:29N 46°49' W 091°39'4 8.3
2018-May-16 21:00N 46°47' W 091°45'4 8.2
2018-May-16 20:30N 46°46' W 091°50'4 8.3
2018-May-16 20:00N 46°44' W 091°56'3 5.9
2018-May-16 19:30N 46°43' W 091°60'1 2.0
2018-May-16 18:58N 46°42' W 092°01'0 0.0
2018-May-16 18:25N 46°42' W 092°01'0 0.0
2018-May-16 17:57N 46°42' W 092°01'0 0.4
2018-May-16 17:30N 46°42' W 092°01'0 0.0
2018-May-16 17:00N 46°42' W 092°01'0 0.0
2018-May-16 16:30N 46°42' W 092°01'0 0.0
2018-May-16 15:59N 46°42' W 092°01'1 1.4
2018-May-16 15:30N 46°42' W 092°01'0 0.0
2018-May-16 15:00N 46°42' W 092°01'0 0.9
2018-May-16 14:30N 46°43' W 092°02'3 5.1
2018-May-16 14:00N 46°44' W 092°05'2 4.6
2018-May-16 13:30N 46°47' W 092°06'  
Track history (hours):
 
Tides and Currents Weather Stations Pressure Air Temp Water Temp Dewpoint Dewpoint Depression Visibility Wind Speed Wind Dir Waves Ship Positions

Billmaier

Last reported at 2018-May-21 08:56 UTC. Time now 2018-Jul-19 13:23 UTC.
Position N 44°59' W 086°01'.
Warning: this ship's position is 59 days out of date.

Type: Tug. MMSI: 366999402.

Date/timePositionNaut miles runAvg speedWind from/ knotsBaromVisibWave heightAir tempDewpointWater temp
2018-May-21 08:56N 44°59' W 086°01'5 8.4
2018-May-21 08:20N 45°01' W 085°55'4 8.3
2018-May-21 07:48N 45°04' W 085°50'3 8.3
2018-May-21 07:28N 45°06' W 085°48'4 8.3
2018-May-21 07:00N 45°10' W 085°44'4 8.3
2018-May-21 06:30N 45°13' W 085°41'4 8.4
2018-May-21 06:00N 45°16' W 085°37'4 8.3
2018-May-21 05:30N 45°20' W 085°34'4 8.3
2018-May-21 05:00N 45°23' W 085°31'4 8.4
2018-May-21 04:30N 45°26' W 085°27'4 8.4
2018-May-21 04:00N 45°30' W 085°24'4 8.3
2018-May-21 03:31N 45°33' W 085°20'4 8.4
2018-May-21 03:00N 45°37' W 085°17'4 8.4
2018-May-21 02:30N 45°40' W 085°13'4 8.3
2018-May-21 02:00N 45°44' W 085°10'4 8.4
2018-May-21 01:30N 45°48' W 085°09'3 7.0
2018-May-21 01:00N 45°50' W 085°05'4 8.2
2018-May-21 00:30N 45°50' W 084°59'4 8.4
2018-May-21 00:00N 45°49' W 084°53'4 8.5
2018-May-20 23:30N 45°49' W 084°47'4 8.3
2018-May-20 23:01N 45°49' W 084°41'4 8.4
2018-May-20 22:30N 45°51' W 084°35'5 8.2
2018-May-20 21:56N 45°52' W 084°29'  
2018-May-16 21:53N 46°50' W 091°35'3 8.2
2018-May-16 21:29N 46°49' W 091°39'4 8.3
2018-May-16 21:00N 46°47' W 091°45'4 8.2
2018-May-16 20:30N 46°46' W 091°50'4 8.3
2018-May-16 20:00N 46°44' W 091°56'3 5.9
2018-May-16 19:30N 46°43' W 091°60'1 2.0
2018-May-16 18:58N 46°42' W 092°01'0 0.0
2018-May-16 18:25N 46°42' W 092°01'0 0.0
2018-May-16 17:57N 46°42' W 092°01'0 0.4
2018-May-16 17:30N 46°42' W 092°01'0 0.0
2018-May-16 17:00N 46°42' W 092°01'0 0.0
2018-May-16 16:30N 46°42' W 092°01'0 0.0
2018-May-16 15:59N 46°42' W 092°01'1 1.4
2018-May-16 15:30N 46°42' W 092°01'0 0.0
2018-May-16 15:00N 46°42' W 092°01'0 0.9
2018-May-16 14:30N 46°43' W 092°02'3 5.1
2018-May-16 14:00N 46°44' W 092°05'2 4.6
2018-May-16 13:30N 46°47' W 092°06'  

Dump ship's entire track history